createdAt,value
2016-08-03T00:00:35.899Z,1010.54
2016-08-03T00:01:35.927Z,1010.58
2016-08-03T00:02:35.955Z,1010.53
2016-08-03T00:03:35.979Z,1010.55
2016-08-03T00:04:36.003Z,1010.53
2016-08-03T00:05:36.029Z,1010.5
2016-08-03T00:06:36.055Z,1010.49
2016-08-03T00:07:36.080Z,1010.51
2016-08-03T00:08:36.108Z,1010.49
2016-08-03T00:09:36.134Z,1010.46
2016-08-03T00:10:36.157Z,1010.45
2016-08-03T00:11:36.183Z,1010.43
2016-08-03T00:12:36.213Z,1010.39
2016-08-03T00:15:36.290Z,1010.38
2016-08-03T00:16:36.364Z,1010.39
2016-08-03T00:17:36.340Z,1010.39
2016-08-03T00:18:36.364Z,1010.38
2016-08-03T00:19:36.391Z,1010.38
2016-08-03T00:20:36.416Z,1010.38
2016-08-03T00:21:36.444Z,1010.38
2016-08-03T00:22:36.469Z,1010.38
2016-08-03T00:23:36.495Z,1010.36
2016-08-03T00:24:36.519Z,1010.31
2016-08-03T00:25:36.548Z,1010.32
2016-08-03T00:26:36.569Z,1010.33
2016-08-03T00:27:36.595Z,1010.31
2016-08-03T00:29:36.649Z,1010.3
2016-08-03T00:31:36.701Z,1010.26
2016-08-03T00:32:36.725Z,1010.2
2016-08-03T00:33:36.752Z,1010.21
2016-08-03T00:34:36.777Z,1010.19
2016-08-03T00:35:36.804Z,1010.2
2016-08-03T00:36:36.829Z,1010.21
2016-08-03T00:37:36.853Z,1010.24
2016-08-03T00:38:36.881Z,1010.32
2016-08-03T00:39:36.904Z,1010.27
2016-08-03T00:40:36.930Z,1010.32
2016-08-03T00:41:36.959Z,1010.29
2016-08-03T00:42:36.982Z,1010.28
2016-08-03T00:44:37.038Z,1010.31
2016-08-03T00:46:37.089Z,1010.25
2016-08-03T00:47:37.111Z,1010.23
2016-08-03T00:48:37.138Z,1010.15
2016-08-03T00:49:37.165Z,1010.16
2016-08-03T00:50:37.190Z,1010.13
2016-08-03T00:51:37.216Z,1010.12
2016-08-03T00:52:37.240Z,1010.12
2016-08-03T00:53:37.266Z,1010.13
2016-08-03T00:54:37.292Z,1010.1
2016-08-03T00:55:37.319Z,1010.12
2016-08-03T00:56:37.344Z,1010.13
2016-08-03T00:57:37.371Z,1010.14
2016-08-03T00:59:37.419Z,1010.15
2016-08-03T01:00:37.445Z,1010.17
2016-08-03T01:01:37.472Z,1010.13
2016-08-03T01:02:37.496Z,1010.12
2016-08-03T01:03:37.522Z,1010.11
2016-08-03T01:04:37.551Z,1010.1
2016-08-03T01:05:37.572Z,1010.08
2016-08-03T01:06:37.600Z,1010.06
2016-08-03T01:07:37.624Z,1010.06
2016-08-03T01:08:37.650Z,1010.07
2016-08-03T01:09:37.677Z,1010.06
2016-08-03T01:10:37.701Z,1010.04
2016-08-03T01:11:37.729Z,1010.07
2016-08-03T01:12:37.755Z,1010.04
2016-08-03T01:13:37.778Z,1010.06
2016-08-03T01:14:37.805Z,1010.03
2016-08-03T01:15:37.829Z,1010.03
2016-08-03T01:16:37.853Z,1010.01
2016-08-03T01:18:37.905Z,1010.02
2016-08-03T01:19:37.932Z,1009.98
2016-08-03T01:20:37.959Z,1010.02
2016-08-03T01:21:37.984Z,1010
2016-08-03T01:22:38.010Z,1010.02
2016-08-03T01:23:38.034Z,1010.04
2016-08-03T01:24:38.058Z,1010.05
2016-08-03T01:25:38.084Z,1010.02
2016-08-03T01:26:38.112Z,1010.04
2016-08-03T01:27:38.136Z,1010.03
2016-08-03T01:28:38.160Z,1010.01
2016-08-03T01:29:38.191Z,1010.05
2016-08-03T01:30:38.214Z,1010.03
2016-08-03T01:31:38.239Z,1010
2016-08-03T01:32:38.266Z,1010.01
2016-08-03T01:34:38.317Z,1010.03
2016-08-03T01:35:38.343Z,1009.95
2016-08-03T01:36:38.364Z,1009.96
2016-08-03T01:37:38.392Z,1009.93
2016-08-03T01:38:38.416Z,1009.95
2016-08-03T01:39:38.444Z,1009.98
2016-08-03T01:40:38.469Z,1010
2016-08-03T01:41:38.493Z,1010.01
2016-08-03T01:42:38.518Z,1010.08
2016-08-03T01:43:38.544Z,1010.09
2016-08-03T01:44:38.572Z,1010.07
2016-08-03T01:45:38.595Z,1010.08
2016-08-03T01:46:38.621Z,1010.04
2016-08-03T01:47:38.647Z,1010.03
2016-08-03T01:48:38.674Z,1009.99
2016-08-03T01:50:38.725Z,1009.92
2016-08-03T01:51:38.749Z,1009.89
2016-08-03T01:52:38.777Z,1009.92
2016-08-03T01:53:38.800Z,1009.9
2016-08-03T01:54:38.825Z,1009.96
2016-08-03T01:55:38.851Z,1009.96
2016-08-03T01:56:38.879Z,1009.93
2016-08-03T01:57:38.903Z,1009.93
2016-08-03T01:58:38.928Z,1009.96
2016-08-03T01:59:38.953Z,1009.94
2016-08-03T02:00:38.978Z,1009.96
2016-08-03T02:01:39.003Z,1009.98
2016-08-03T02:02:39.029Z,1009.98
2016-08-03T02:03:39.057Z,1009.94
2016-08-03T02:04:39.080Z,1009.96
2016-08-03T02:06:39.133Z,1009.99
2016-08-03T02:07:39.160Z,1009.97
2016-08-03T02:08:39.185Z,1009.96
2016-08-03T02:09:39.208Z,1009.98
2016-08-03T02:10:39.237Z,1009.91
2016-08-03T02:11:39.262Z,1009.88
2016-08-03T02:12:39.286Z,1009.88
2016-08-03T02:13:39.312Z,1009.89
2016-08-03T02:14:39.335Z,1009.87
2016-08-03T02:15:39.360Z,1009.88
2016-08-03T02:16:39.386Z,1009.9
2016-08-03T02:17:39.411Z,1009.9
2016-08-03T02:18:39.440Z,1009.83
2016-08-03T02:19:39.466Z,1009.82
2016-08-03T02:21:39.517Z,1009.79
2016-08-03T02:22:39.540Z,1009.77
2016-08-03T02:23:39.567Z,1009.73
2016-08-03T02:24:39.643Z,1009.67
2016-08-03T02:25:39.616Z,1009.75
2016-08-03T02:26:39.643Z,1009.65
2016-08-03T02:27:39.670Z,1009.64
2016-08-03T02:28:39.696Z,1009.63
2016-08-03T02:29:39.717Z,1009.58
2016-08-03T02:30:39.743Z,1009.64
2016-08-03T02:31:39.769Z,1009.62
2016-08-03T02:32:39.796Z,1009.58
2016-08-03T02:33:39.829Z,1009.57
2016-08-03T02:34:39.847Z,1009.55
2016-08-03T02:35:39.871Z,1009.48
2016-08-03T02:36:39.897Z,1009.47
2016-08-03T02:37:39.923Z,1009.37
2016-08-03T02:38:39.947Z,1009.33
2016-08-03T02:39:39.975Z,1009.29
2016-08-03T02:40:39.998Z,1009.28
2016-08-03T02:41:40.023Z,1009.3
2016-08-03T02:42:40.051Z,1009.35
2016-08-03T02:43:40.075Z,1009.42
2016-08-03T02:44:40.100Z,1009.47
2016-08-03T02:45:40.127Z,1009.52
2016-08-03T02:46:40.150Z,1009.54
2016-08-03T02:47:40.177Z,1009.57
2016-08-03T02:48:40.204Z,1009.6
2016-08-03T02:49:40.229Z,1009.61
2016-08-03T02:50:40.255Z,1009.64
2016-08-03T02:51:40.280Z,1009.6
2016-08-03T02:53:40.333Z,1009.59
2016-08-03T02:54:40.357Z,1009.63
2016-08-03T02:55:40.379Z,1009.57
2016-08-03T02:56:40.406Z,1009.56
2016-08-03T02:57:40.431Z,1009.5
2016-08-03T02:58:40.457Z,1009.49
2016-08-03T02:59:40.481Z,1009.54
2016-08-03T03:00:40.509Z,1009.53
2016-08-03T03:01:40.533Z,1009.53
2016-08-03T03:02:40.560Z,1009.55
2016-08-03T03:03:40.583Z,1009.54
2016-08-03T03:04:40.609Z,1009.57
2016-08-03T03:05:40.640Z,1009.54
2016-08-03T03:06:40.661Z,1009.55
2016-08-03T03:07:40.685Z,1009.53
2016-08-03T03:09:40.737Z,1009.56
2016-08-03T03:10:40.764Z,1009.54
2016-08-03T03:11:40.786Z,1009.53
2016-08-03T03:12:40.813Z,1009.52
2016-08-03T03:13:40.840Z,1009.55
2016-08-03T03:14:40.867Z,1009.53
2016-08-03T03:15:40.891Z,1009.52
2016-08-03T03:16:40.914Z,1009.51
2016-08-03T03:17:40.942Z,1009.5
2016-08-03T03:18:40.968Z,1009.53
2016-08-03T03:19:40.993Z,1009.53
2016-08-03T03:20:41.018Z,1009.59
2016-08-03T03:21:41.043Z,1009.58
2016-08-03T03:22:41.070Z,1009.58
2016-08-03T03:23:41.095Z,1009.58
2016-08-03T03:25:41.146Z,1009.57
2016-08-03T03:26:41.173Z,1009.56
2016-08-03T03:27:41.195Z,1009.57
2016-08-03T03:28:41.220Z,1009.57
2016-08-03T03:29:41.249Z,1009.56
2016-08-03T03:30:41.274Z,1009.61
2016-08-03T03:31:41.297Z,1009.6
2016-08-03T03:32:41.321Z,1009.58
2016-08-03T03:33:41.349Z,1009.56
2016-08-03T03:34:41.375Z,1009.58
2016-08-03T03:35:41.400Z,1009.54
2016-08-03T03:36:41.424Z,1009.52
2016-08-03T03:37:41.450Z,1009.53
2016-08-03T03:38:41.478Z,1009.52
2016-08-03T03:39:41.504Z,1009.54
2016-08-03T03:41:41.556Z,1009.52
2016-08-03T03:42:41.577Z,1009.5
2016-08-03T03:43:41.604Z,1009.51
2016-08-03T03:44:41.629Z,1009.49
2016-08-03T03:45:41.655Z,1009.47
2016-08-03T03:46:41.678Z,1009.45
2016-08-03T03:47:41.706Z,1009.39
2016-08-03T03:48:41.731Z,1009.41
2016-08-03T03:49:41.758Z,1009.37
2016-08-03T03:50:41.780Z,1009.37
2016-08-03T03:51:41.808Z,1009.37
2016-08-03T03:52:41.834Z,1009.44
2016-08-03T03:53:41.858Z,1009.45
2016-08-03T03:54:41.885Z,1009.45
2016-08-03T03:56:41.937Z,1009.5
2016-08-03T03:57:41.961Z,1009.45
2016-08-03T03:58:41.986Z,1009.47
2016-08-03T03:59:42.017Z,1009.47
2016-08-03T04:00:42.037Z,1009.47
2016-08-03T04:01:42.063Z,1009.47
2016-08-03T04:02:42.089Z,1009.49
2016-08-03T04:03:42.114Z,1009.48
2016-08-03T04:04:42.138Z,1009.51
2016-08-03T04:05:42.164Z,1009.5
2016-08-03T04:06:42.191Z,1009.48
2016-08-03T04:07:42.221Z,1009.51
2016-08-03T04:08:42.241Z,1009.51
2016-08-03T04:09:42.267Z,1009.47
2016-08-03T04:10:42.295Z,1009.46
2016-08-03T04:11:42.318Z,1009.38
2016-08-03T04:12:42.342Z,1009.33
2016-08-03T04:13:42.368Z,1009.33
2016-08-03T04:14:42.394Z,1009.36
2016-08-03T04:15:42.420Z,1009.31
2016-08-03T04:16:42.446Z,1009.28
2016-08-03T04:17:42.472Z,1009.3
2016-08-03T04:18:42.497Z,1009.27
2016-08-03T04:19:42.523Z,1009.28
2016-08-03T04:20:42.549Z,1009.26
2016-08-03T04:21:42.574Z,1009.25
2016-08-03T04:22:42.598Z,1009.2
2016-08-03T04:23:42.624Z,1009.16
2016-08-03T04:24:42.652Z,1009.13
2016-08-03T04:25:42.675Z,1009.11
2016-08-03T04:26:42.700Z,1009.1
2016-08-03T04:28:42.752Z,1009.14
2016-08-03T04:29:42.778Z,1009.06
2016-08-03T04:30:42.802Z,1009.14
2016-08-03T04:31:42.829Z,1009.12
2016-08-03T04:32:42.857Z,1009.1
2016-08-03T04:33:42.886Z,1009.13
2016-08-03T04:34:42.912Z,1009.16
2016-08-03T04:35:42.932Z,1009.17
2016-08-03T04:36:42.958Z,1009.17
2016-08-03T04:37:42.985Z,1009.16
2016-08-03T04:38:43.010Z,1009.14
2016-08-03T04:39:43.035Z,1009.14
2016-08-03T04:40:43.064Z,1009.14
2016-08-03T04:41:43.088Z,1009.12
2016-08-03T04:42:43.115Z,1009.1
2016-08-03T04:45:43.191Z,1009.06
2016-08-03T04:46:43.217Z,1009.03
2016-08-03T04:47:43.241Z,1009.05
2016-08-03T04:48:43.266Z,1009.02
2016-08-03T04:49:43.294Z,1008.98
2016-08-03T04:50:43.321Z,1009
2016-08-03T04:51:43.345Z,1008.97
2016-08-03T04:52:43.372Z,1008.99
2016-08-03T04:53:43.399Z,1008.98
2016-08-03T04:54:43.423Z,1008.97
2016-08-03T04:55:43.450Z,1008.95
2016-08-03T04:56:43.473Z,1008.89
2016-08-03T04:57:43.501Z,1008.96
2016-08-03T04:58:43.528Z,1008.96
2016-08-03T05:00:43.578Z,1008.87
2016-08-03T05:01:43.604Z,1008.83
2016-08-03T05:02:43.631Z,1008.84
2016-08-03T05:03:43.653Z,1008.8
2016-08-03T05:04:43.681Z,1008.79
2016-08-03T05:05:43.707Z,1008.75
2016-08-03T05:06:43.736Z,1008.73
2016-08-03T05:07:43.757Z,1008.76
2016-08-03T05:08:43.786Z,1008.73
2016-08-03T05:09:43.811Z,1008.76
2016-08-03T05:10:43.835Z,1008.78
2016-08-03T05:11:43.862Z,1008.74
2016-08-03T05:12:43.891Z,1008.76
2016-08-03T05:13:43.917Z,1008.73
2016-08-03T05:14:43.939Z,1008.73
2016-08-03T05:16:43.995Z,1008.69
2016-08-03T05:17:44.030Z,1008.67
2016-08-03T05:18:44.045Z,1008.64
2016-08-03T05:19:44.074Z,1008.64
2016-08-03T05:20:44.100Z,1008.61
2016-08-03T05:21:44.123Z,1008.65
2016-08-03T05:22:44.151Z,1008.63
2016-08-03T05:23:44.176Z,1008.66
2016-08-03T05:24:44.205Z,1008.64
2016-08-03T05:25:44.227Z,1008.68
2016-08-03T05:26:44.254Z,1008.67
2016-08-03T05:27:44.284Z,1008.66
2016-08-03T05:28:44.309Z,1008.64
2016-08-03T05:29:44.335Z,1008.68
2016-08-03T05:31:44.389Z,1008.74
2016-08-03T05:32:44.462Z,1008.76
2016-08-03T05:33:44.440Z,1008.73
2016-08-03T05:34:44.468Z,1008.72
2016-08-03T05:35:44.494Z,1008.71
2016-08-03T05:36:44.517Z,1008.68
2016-08-03T05:37:44.546Z,1008.68
2016-08-03T05:38:44.572Z,1008.64
2016-08-03T05:39:44.598Z,1008.62
2016-08-03T05:40:44.622Z,1008.65
2016-08-03T05:41:44.652Z,1008.58
2016-08-03T05:42:44.677Z,1008.56
2016-08-03T05:43:44.701Z,1008.57
2016-08-03T05:44:44.727Z,1008.55
2016-08-03T05:45:44.753Z,1008.57
2016-08-03T05:46:44.780Z,1008.58
2016-08-03T05:47:44.805Z,1008.59
2016-08-03T05:48:44.833Z,1008.54
2016-08-03T05:49:44.859Z,1008.55
2016-08-03T05:50:44.884Z,1008.52
2016-08-03T05:51:44.911Z,1008.54
2016-08-03T05:52:44.938Z,1008.51
2016-08-03T05:53:44.964Z,1008.45
2016-08-03T05:54:44.988Z,1008.45
2016-08-03T05:55:45.017Z,1008.43
2016-08-03T05:56:45.040Z,1008.44
2016-08-03T05:57:45.067Z,1008.43
2016-08-03T05:58:45.093Z,1008.42
2016-08-03T05:59:45.118Z,1008.39
2016-08-03T06:00:45.143Z,1008.42
2016-08-03T06:01:45.171Z,1008.47
2016-08-03T06:03:45.222Z,1008.36
2016-08-03T06:04:45.248Z,1008.4
2016-08-03T06:05:45.277Z,1008.32
2016-08-03T06:06:45.303Z,1008.26
2016-08-03T06:07:45.329Z,1008.24
2016-08-03T06:08:45.353Z,1008.26
2016-08-03T06:09:45.381Z,1008.26
2016-08-03T06:10:45.405Z,1008.28
2016-08-03T06:11:45.433Z,1008.31
2016-08-03T06:12:45.459Z,1008.3
2016-08-03T06:13:45.486Z,1008.24
2016-08-03T06:14:45.512Z,1008.29
2016-08-03T06:15:45.539Z,1008.31
2016-08-03T06:16:45.564Z,1008.27
2016-08-03T06:17:45.590Z,1008.29
2016-08-03T06:19:45.641Z,1008.28
2016-08-03T06:20:45.667Z,1008.25
2016-08-03T06:21:45.694Z,1008.26
2016-08-03T06:22:45.721Z,1008.28
2016-08-03T06:23:45.749Z,1008.23
2016-08-03T06:24:45.775Z,1008.26
2016-08-03T06:25:45.799Z,1008.29
2016-08-03T06:26:45.828Z,1008.2
2016-08-03T06:27:45.852Z,1008.21
2016-08-03T06:28:45.878Z,1008.21
2016-08-03T06:29:45.907Z,1008.21
2016-08-03T06:30:45.933Z,1008.23
2016-08-03T06:31:45.962Z,1008.19
2016-08-03T06:32:45.984Z,1008.19
2016-08-03T06:33:46.013Z,1008.18
2016-08-03T06:35:46.067Z,1008.17
2016-08-03T06:36:46.091Z,1008.11
2016-08-03T06:37:46.118Z,1008.09
2016-08-03T06:38:46.143Z,1008.08
2016-08-03T06:39:46.172Z,1008.08
2016-08-03T06:40:46.199Z,1008.06
2016-08-03T06:41:46.226Z,1008.1
2016-08-03T06:42:46.250Z,1008.11
2016-08-03T06:43:46.280Z,1008.12
2016-08-03T06:44:46.303Z,1008.1
2016-08-03T06:45:46.331Z,1008.11
2016-08-03T06:46:46.358Z,1008.07
2016-08-03T06:47:46.384Z,1008.13
2016-08-03T06:48:46.413Z,1008.13
2016-08-03T06:49:46.435Z,1008.09
2016-08-03T06:51:46.489Z,1008.1
2016-08-03T06:52:46.517Z,1008.14
2016-08-03T06:53:46.541Z,1008.13
2016-08-03T06:54:46.571Z,1008.11
2016-08-03T06:55:46.598Z,1008.1
2016-08-03T06:56:46.624Z,1008.08
2016-08-03T06:57:46.648Z,1008.08
2016-08-03T06:58:46.679Z,1008.07
2016-08-03T06:59:46.703Z,1008.08
2016-08-03T07:00:46.728Z,1008.04
2016-08-03T07:01:46.755Z,1008.03
2016-08-03T07:02:46.781Z,1008.03
2016-08-03T07:03:46.809Z,1008
2016-08-03T07:04:46.838Z,1007.96
2016-08-03T07:06:46.891Z,1007.93
2016-08-03T07:07:46.920Z,1007.97
2016-08-03T07:08:46.946Z,1007.95
2016-08-03T07:09:46.973Z,1007.95
2016-08-03T07:10:47.000Z,1007.97
2016-08-03T07:11:47.024Z,1007.93
2016-08-03T07:12:47.052Z,1007.94
2016-08-03T07:13:47.079Z,1007.96
2016-08-03T07:14:47.104Z,1008
2016-08-03T07:15:47.135Z,1007.99
2016-08-03T07:16:47.161Z,1007.94
2016-08-03T07:17:47.189Z,1008
2016-08-03T07:18:47.212Z,1008.01
2016-08-03T07:19:47.239Z,1007.97
2016-08-03T07:20:47.270Z,1007.95
2016-08-03T07:21:47.294Z,1007.93
2016-08-03T07:22:47.322Z,1007.9
2016-08-03T07:23:47.347Z,1007.88
2016-08-03T07:24:47.377Z,1007.9
2016-08-03T07:25:47.403Z,1007.89
2016-08-03T07:26:47.431Z,1007.96
2016-08-03T07:27:47.458Z,1007.92
2016-08-03T07:28:47.485Z,1007.9
2016-08-03T07:29:47.509Z,1007.88
2016-08-03T07:30:47.537Z,1007.87
2016-08-03T07:31:47.566Z,1007.87
2016-08-03T07:32:47.590Z,1007.84
2016-08-03T07:33:47.619Z,1007.84
2016-08-03T07:34:47.645Z,1007.89
2016-08-03T07:35:47.673Z,1007.88
2016-08-03T07:36:47.749Z,1007.89
2016-08-03T07:38:47.804Z,1007.92
2016-08-03T07:39:47.784Z,1007.86
2016-08-03T07:40:47.810Z,1007.86
2016-08-03T07:41:47.839Z,1007.85
2016-08-03T07:42:47.866Z,1007.82
2016-08-03T07:43:47.894Z,1007.83
2016-08-03T07:44:47.920Z,1007.8
2016-08-03T07:45:47.945Z,1007.8
2016-08-03T07:46:47.975Z,1007.81
2016-08-03T07:47:48.002Z,1007.8
2016-08-03T07:48:48.029Z,1007.82
2016-08-03T07:49:48.055Z,1007.78
2016-08-03T07:50:48.085Z,1007.77
2016-08-03T07:51:48.111Z,1007.76
2016-08-03T07:52:48.138Z,1007.78
2016-08-03T07:54:48.192Z,1007.75
2016-08-03T07:55:48.219Z,1007.72
2016-08-03T07:56:48.246Z,1007.76
2016-08-03T07:57:48.278Z,1007.72
2016-08-03T07:58:48.304Z,1007.68
2016-08-03T07:59:48.331Z,1007.7
2016-08-03T08:00:48.359Z,1007.69
2016-08-03T08:01:48.387Z,1007.68
2016-08-03T08:02:48.411Z,1007.67
2016-08-03T08:03:48.439Z,1007.61
2016-08-03T08:04:48.470Z,1007.6
2016-08-03T08:05:48.497Z,1007.64
2016-08-03T08:06:48.522Z,1007.63
2016-08-03T08:07:48.551Z,1007.6
2016-08-03T08:08:48.578Z,1007.59
2016-08-03T08:10:48.633Z,1007.65
2016-08-03T08:11:48.661Z,1007.66
2016-08-03T08:12:48.690Z,1007.7
2016-08-03T08:13:48.713Z,1007.67
2016-08-03T08:14:48.741Z,1007.71
2016-08-03T08:15:48.769Z,1007.68
2016-08-03T08:16:48.795Z,1007.68
2016-08-03T08:17:48.824Z,1007.61
2016-08-03T08:18:48.850Z,1007.6
2016-08-03T08:19:48.880Z,1007.62
2016-08-03T08:20:48.906Z,1007.62
2016-08-03T08:21:48.936Z,1007.59
2016-08-03T08:22:48.963Z,1007.56
2016-08-03T08:23:48.989Z,1007.59
2016-08-03T08:24:49.019Z,1007.59
2016-08-03T08:26:49.074Z,1007.58
2016-08-03T08:27:49.100Z,1007.59
2016-08-03T08:28:49.128Z,1007.6
2016-08-03T08:29:49.158Z,1007.57
2016-08-03T08:30:49.182Z,1007.62
2016-08-03T08:31:49.207Z,1007.64
2016-08-03T08:32:49.235Z,1007.64
2016-08-03T08:33:49.263Z,1007.64
2016-08-03T08:34:49.291Z,1007.66
2016-08-03T08:35:49.318Z,1007.65
2016-08-03T08:36:49.345Z,1007.64
2016-08-03T08:37:49.372Z,1007.63
2016-08-03T08:38:49.403Z,1007.6
2016-08-03T08:39:49.427Z,1007.6
2016-08-03T08:41:49.484Z,1007.52
2016-08-03T08:42:49.508Z,1007.52
2016-08-03T08:43:49.538Z,1007.51
2016-08-03T08:44:49.564Z,1007.38
2016-08-03T08:46:49.620Z,1007.45
2016-08-03T08:47:49.647Z,1007.47
2016-08-03T08:48:49.676Z,1007.44
2016-08-03T08:49:49.703Z,1007.52
2016-08-03T08:50:49.727Z,1007.47
2016-08-03T08:51:49.754Z,1007.47
2016-08-03T08:52:49.782Z,1007.54
2016-08-03T08:53:49.816Z,1007.54
2016-08-03T08:54:49.838Z,1007.49
2016-08-03T08:55:49.865Z,1007.56
2016-08-03T08:56:49.891Z,1007.54
2016-08-03T08:57:49.918Z,1007.52
2016-08-03T08:58:49.949Z,1007.52
2016-08-03T08:59:49.972Z,1007.52
2016-08-03T09:01:50.028Z,1007.54
2016-08-03T09:02:50.056Z,1007.59
2016-08-03T09:03:50.087Z,1007.55
2016-08-03T09:04:50.111Z,1007.6
2016-08-03T09:05:50.135Z,1007.56
2016-08-03T09:06:50.163Z,1007.61
2016-08-03T09:07:50.194Z,1007.55
2016-08-03T09:08:50.218Z,1007.51
2016-08-03T09:09:50.243Z,1007.54
2016-08-03T09:10:50.273Z,1007.49
2016-08-03T09:11:50.299Z,1007.44
2016-08-03T09:13:50.353Z,1007.41
2016-08-03T09:14:50.380Z,1007.45
2016-08-03T09:15:50.409Z,1007.46
2016-08-03T09:16:50.434Z,1007.48
2016-08-03T09:17:50.465Z,1007.45
2016-08-03T09:18:50.488Z,1007.44
2016-08-03T09:19:50.515Z,1007.49
2016-08-03T09:20:50.544Z,1007.49
2016-08-03T09:21:50.572Z,1007.45
2016-08-03T09:22:50.596Z,1007.43
2016-08-03T09:23:50.625Z,1007.42
2016-08-03T09:24:50.654Z,1007.47
2016-08-03T09:25:50.681Z,1007.42
2016-08-03T09:26:50.705Z,1007.44
2016-08-03T09:27:50.732Z,1007.46
2016-08-03T09:29:50.790Z,1007.44
2016-08-03T09:30:50.817Z,1007.45
2016-08-03T09:31:50.844Z,1007.43
2016-08-03T09:32:50.869Z,1007.42
2016-08-03T09:33:50.896Z,1007.44
2016-08-03T09:34:50.926Z,1007.45
2016-08-03T09:35:50.952Z,1007.39
2016-08-03T09:36:50.979Z,1007.41
2016-08-03T09:37:51.006Z,1007.41
2016-08-03T09:38:51.045Z,1007.37
2016-08-03T09:39:51.063Z,1007.36
2016-08-03T09:40:51.091Z,1007.34
2016-08-03T09:41:51.115Z,1007.38
2016-08-03T09:42:51.142Z,1007.37
2016-08-03T09:43:51.173Z,1007.42
2016-08-03T09:45:51.277Z,1007.4
2016-08-03T09:46:51.255Z,1007.41
2016-08-03T09:47:51.282Z,1007.39
2016-08-03T09:48:51.307Z,1007.46
2016-08-03T09:49:51.335Z,1007.38
2016-08-03T09:50:51.365Z,1007.37
2016-08-03T09:51:51.390Z,1007.4
2016-08-03T09:52:51.417Z,1007.4
2016-08-03T09:53:51.446Z,1007.39
2016-08-03T09:54:51.474Z,1007.41
2016-08-03T09:55:51.501Z,1007.41
2016-08-03T09:56:51.529Z,1007.41
2016-08-03T09:57:51.556Z,1007.42
2016-08-03T09:58:51.585Z,1007.37
2016-08-03T09:59:51.608Z,1007.39
2016-08-03T10:01:51.665Z,1007.41
2016-08-03T10:02:51.695Z,1007.37
2016-08-03T10:03:51.721Z,1007.31
2016-08-03T10:04:51.746Z,1007.27
2016-08-03T10:05:51.778Z,1007.31
2016-08-03T10:06:51.802Z,1007.23
2016-08-03T10:07:51.828Z,1007.22
2016-08-03T10:08:51.859Z,1007.22
2016-08-03T10:09:51.884Z,1007.24
2016-08-03T10:10:51.914Z,1007.17
2016-08-03T10:11:51.939Z,1007.22
2016-08-03T10:12:51.967Z,1007.17
2016-08-03T10:13:51.996Z,1007.12
2016-08-03T10:14:52.025Z,1007.12
2016-08-03T10:16:52.079Z,1007.06
2016-08-03T10:17:52.106Z,1007.09
2016-08-03T10:18:52.134Z,1007.12
2016-08-03T10:19:52.162Z,1007.11
2016-08-03T10:20:52.190Z,1007.08
2016-08-03T10:21:52.220Z,1007.06
2016-08-03T10:22:52.247Z,1007.06
2016-08-03T10:23:52.276Z,1007.08
2016-08-03T10:24:52.302Z,1007.05
2016-08-03T10:25:52.330Z,1007.09
2016-08-03T10:26:52.359Z,1007.1
2016-08-03T10:27:52.388Z,1007.1
2016-08-03T10:28:52.412Z,1007.08
2016-08-03T10:29:52.442Z,1007.08
2016-08-03T10:30:52.470Z,1007.08
2016-08-03T10:31:52.497Z,1007.05
2016-08-03T10:32:52.524Z,1007.05
2016-08-03T10:33:52.554Z,1007.03
2016-08-03T10:34:52.580Z,1007.03
2016-08-03T10:35:52.609Z,1007.02
2016-08-03T10:36:52.634Z,1007.01
2016-08-03T10:37:52.664Z,1006.99
2016-08-03T10:38:52.696Z,1006.98
2016-08-03T10:39:52.722Z,1006.98
2016-08-03T10:40:52.747Z,1006.99
2016-08-03T10:41:52.779Z,1006.91
2016-08-03T10:42:52.807Z,1006.94
2016-08-03T10:43:52.831Z,1006.92
2016-08-03T10:44:52.860Z,1006.88
2016-08-03T10:45:52.891Z,1006.89
2016-08-03T10:46:52.921Z,1006.86
2016-08-03T10:48:52.974Z,1006.86
2016-08-03T10:49:53.004Z,1006.89
2016-08-03T10:50:53.031Z,1006.84
2016-08-03T10:51:53.111Z,1006.85
2016-08-03T10:52:53.096Z,1006.87
2016-08-03T10:53:53.116Z,1006.85
2016-08-03T10:54:53.143Z,1006.85
2016-08-03T10:55:53.175Z,1006.81
2016-08-03T10:56:53.203Z,1006.83
2016-08-03T10:57:53.228Z,1006.78
2016-08-03T10:58:53.258Z,1006.78
2016-08-03T10:59:53.288Z,1006.8
2016-08-03T11:00:53.315Z,1006.78
2016-08-03T11:01:53.344Z,1006.76
2016-08-03T11:02:53.371Z,1006.73
2016-08-03T11:04:53.430Z,1006.7
2016-08-03T11:05:53.456Z,1006.71
2016-08-03T11:06:53.486Z,1006.75
2016-08-03T11:07:53.514Z,1006.78
2016-08-03T11:08:53.540Z,1006.77
2016-08-03T11:09:53.569Z,1006.79
2016-08-03T11:10:53.599Z,1006.76
2016-08-03T11:11:53.629Z,1006.83
2016-08-03T11:12:53.655Z,1006.79
2016-08-03T11:13:53.686Z,1006.78
2016-08-03T11:14:53.715Z,1006.82
2016-08-03T11:15:53.742Z,1006.79
2016-08-03T11:16:53.769Z,1006.85
2016-08-03T11:17:53.798Z,1006.84
2016-08-03T11:18:53.831Z,1006.87
2016-08-03T11:20:53.888Z,1006.79
2016-08-03T11:21:53.919Z,1006.84
2016-08-03T11:22:53.943Z,1006.83
2016-08-03T11:23:53.972Z,1006.82
2016-08-03T11:24:53.999Z,1006.85
2016-08-03T11:25:54.030Z,1006.88
2016-08-03T11:26:54.057Z,1006.85
2016-08-03T11:27:54.085Z,1006.88
2016-08-03T11:28:54.117Z,1006.83
2016-08-03T11:29:54.146Z,1006.87
2016-08-03T11:30:54.172Z,1006.83
2016-08-03T11:31:54.200Z,1006.88
2016-08-03T11:32:54.231Z,1006.89
2016-08-03T11:33:54.259Z,1006.9
2016-08-03T11:34:54.289Z,1006.9
2016-08-03T11:36:54.346Z,1006.81
2016-08-03T11:37:54.374Z,1006.82
2016-08-03T11:38:54.402Z,1006.81
2016-08-03T11:39:54.431Z,1006.82
2016-08-03T11:40:54.461Z,1006.77
2016-08-03T11:41:54.490Z,1006.8
2016-08-03T11:42:54.517Z,1006.78
2016-08-03T11:43:54.547Z,1006.76
2016-08-03T11:44:54.579Z,1006.8
2016-08-03T11:45:54.606Z,1006.78
2016-08-03T11:46:54.635Z,1006.76
2016-08-03T11:47:54.662Z,1006.78
2016-08-03T11:48:54.693Z,1006.76
2016-08-03T11:49:54.723Z,1006.78
2016-08-03T11:51:54.781Z,1006.79
2016-08-03T11:52:54.806Z,1006.74
2016-08-03T11:53:54.836Z,1006.72
2016-08-03T11:54:54.866Z,1006.67
2016-08-03T11:55:54.895Z,1006.69
2016-08-03T11:56:54.921Z,1006.7
2016-08-03T11:57:54.953Z,1006.69
2016-08-03T11:58:54.979Z,1006.72
2016-08-03T11:59:55.007Z,1006.71
2016-08-03T12:00:55.039Z,1006.7
2016-08-03T12:01:55.066Z,1006.67
2016-08-03T12:02:55.096Z,1006.67
2016-08-03T12:03:55.123Z,1006.68
2016-08-03T12:04:55.151Z,1006.67
2016-08-03T12:05:55.181Z,1006.72
2016-08-03T12:06:55.211Z,1006.73
2016-08-03T12:07:55.241Z,1006.76
2016-08-03T12:08:55.269Z,1006.76
2016-08-03T12:09:55.295Z,1006.76
2016-08-03T12:10:55.323Z,1006.78
2016-08-03T12:11:55.354Z,1006.78
2016-08-03T12:12:55.381Z,1006.75
2016-08-03T12:13:55.410Z,1006.76
2016-08-03T12:14:55.437Z,1006.73
2016-08-03T12:15:55.466Z,1006.76
2016-08-03T12:16:55.494Z,1006.74
2016-08-03T12:17:55.526Z,1006.71
2016-08-03T12:18:55.550Z,1006.74
2016-08-03T12:19:55.579Z,1006.73
2016-08-03T12:20:55.610Z,1006.73
2016-08-03T12:21:55.635Z,1006.74
2016-08-03T12:23:55.695Z,1006.74
2016-08-03T12:24:55.723Z,1006.75
2016-08-03T12:25:55.749Z,1006.73
2016-08-03T12:26:55.778Z,1006.71
2016-08-03T12:27:55.806Z,1006.71
2016-08-03T12:28:55.842Z,1006.67
2016-08-03T12:29:55.863Z,1006.67
2016-08-03T12:30:55.892Z,1006.68
2016-08-03T12:31:55.921Z,1006.67
2016-08-03T12:32:55.948Z,1006.64
2016-08-03T12:33:55.978Z,1006.64
2016-08-03T12:34:56.007Z,1006.59
2016-08-03T12:35:56.035Z,1006.59
2016-08-03T12:36:56.063Z,1006.59
2016-08-03T12:37:56.091Z,1006.56
2016-08-03T12:39:56.147Z,1006.57
2016-08-03T12:40:56.175Z,1006.54
2016-08-03T12:41:56.207Z,1006.57
2016-08-03T12:42:56.239Z,1006.52
2016-08-03T12:43:56.259Z,1006.58
2016-08-03T12:44:56.296Z,1006.58
2016-08-03T12:45:56.319Z,1006.54
2016-08-03T12:46:56.348Z,1006.58
2016-08-03T12:47:56.374Z,1006.54
2016-08-03T12:48:56.404Z,1006.52
2016-08-03T12:49:56.435Z,1006.54
2016-08-03T12:50:56.462Z,1006.53
2016-08-03T12:51:56.488Z,1006.45
2016-08-03T12:52:56.519Z,1006.48
2016-08-03T12:53:56.549Z,1006.48
2016-08-03T12:55:56.619Z,1006.48
2016-08-03T12:56:56.637Z,1006.52